Time;durP1;ratioP1;P1;durP2;ratioP2;P2;SDS_P1;SDS_P2;PMS_P1;PMS_P2;Temp;Humidity;BMP_temperature;BMP_pressure;BME280_temperature;BME280_humidity;BME280_pressure;Samples;Min_cycle;Max_cycle;Signal;HPM_P1;HPM_P2
2023/10/10 00:02:04;;;;;;;13.15;7.35;;;11.50;99.90;;;12.29;95.42;98496.94;10356962;28;20577;-64
2023/10/10 00:07:14;;;;;;;15.77;7.15;;;11.40;99.90;;;12.20;95.81;98490.41;10359586;28;20574;-63
2023/10/10 00:12:19;;;;;;;11.68;6.93;;;11.40;99.90;;;12.15;95.67;98483.28;10357934;28;21524;-66
2023/10/10 00:17:22;;;;;;;16.23;7.53;;;11.40;99.90;;;12.14;96.86;98496.91;10358889;28;20226;-64
2023/10/10 00:22:35;;;;;;;12.38;6.75;;;11.40;99.90;;;12.17;95.61;98497.09;10358337;28;20285;-66
2023/10/10 00:27:39;;;;;;;10.48;6.53;;;11.30;99.90;;;12.10;95.95;98500.09;10357364;28;20234;-66
2023/10/10 00:32:45;;;;;;;14.02;6.78;;;11.30;99.90;;;12.03;96.42;98503.06;10356933;28;20613;-68
2023/10/10 00:37:49;;;;;;;10.43;7.00;;;11.20;99.90;;;11.99;96.21;98500.19;10357002;28;20241;-65
2023/10/10 00:42:53;;;;;;;13.05;6.78;;;11.10;99.90;;;11.88;96.33;98490.19;10359390;28;20222;-65
2023/10/10 00:47:59;;;;;;;11.85;7.10;;;11.10;99.90;;;11.82;96.47;98489.78;10357533;28;20889;-64
2023/10/10 00:53:11;;;;;;;12.40;6.63;;;11.00;99.90;;;11.77;96.77;98490.28;10356418;28;20233;-64
2023/10/10 00:58:15;;;;;;;13.70;7.22;;;11.00;99.90;;;11.78;97.51;98484.34;10358697;28;20234;-65
2023/10/10 01:03:21;;;;;;;11.18;6.38;;;11.00;99.90;;;11.78;96.74;98481.81;10353708;28;20230;-65
2023/10/10 01:08:30;;;;;;;15.25;6.75;;;11.00;99.90;;;11.66;96.89;98480.25;10354349;28;20230;-64
2023/10/10 01:13:34;;;;;;;13.32;7.13;;;10.90;99.90;;;11.65;96.74;98467.34;10360008;28;20234;-64
2023/10/10 01:18:42;;;;;;;11.93;7.07;;;10.80;99.90;;;11.57;97.32;98482.22;10354543;28;20233;-64
2023/10/10 01:23:46;;;;;;;13.32;6.72;;;10.80;99.90;;;11.52;97.46;98473.38;10356170;28;20236;-65
2023/10/10 01:28:49;;;;;;;12.30;6.57;;;10.70;99.90;;;11.47;97.00;98474.75;10357170;28;20222;-65
2023/10/10 01:33:52;;;;;;;14.25;6.55;;;10.60;99.90;;;11.44;96.85;98472.00;10358318;28;20708;-64
2023/10/10 01:39:34;;;;;;;12.73;6.47;;;10.60;99.90;;;11.32;97.63;98466.09;10353331;28;20223;-65
2023/10/10 01:44:38;;;;;;;10.57;6.45;;;10.50;99.90;;;11.27;98.01;98466.72;10357159;28;20627;-64
2023/10/10 01:49:43;;;;;;;14.45;6.60;;;10.50;99.90;;;11.30;98.21;98452.31;10354134;28;20233;-64
2023/10/10 01:54:52;;;;;;;11.80;5.95;;;10.50;99.90;;;11.30;98.22;98458.31;10352705;28;20232;-64
2023/10/10 01:59:57;;;;;;;11.73;6.65;;;10.50;99.90;;;11.27;97.78;98453.91;10355157;28;20234;-65
2023/10/10 02:05:04;;;;;;;9.68;5.78;;;10.50;99.90;;;11.25;98.10;98460.59;10355380;28;20293;-64
2023/10/10 02:10:13;;;;;;;10.02;6.28;;;10.50;99.90;;;11.19;98.20;98454.22;10355504;28;20222;-65
2023/10/10 02:15:18;;;;;;;15.95;6.50;;;10.40;99.90;;;11.14;98.01;98446.22;10354929;28;20281;-64
2023/10/10 02:20:49;;;;;;;10.93;6.60;;;10.40;99.90;;;11.08;97.97;98450.06;10354497;28;20241;-65
2023/10/10 02:25:54;;;;;;;14.48;6.55;;;10.30;99.90;;;10.99;97.06;98460.59;10356512;28;20312;-64
2023/10/10 02:31:03;;;;;;;16.55;7.05;;;10.20;99.90;;;11.00;98.43;98458.13;10354352;28;20641;-65
2023/10/10 02:36:13;;;;;;;11.02;6.85;;;10.30;99.90;;;10.89;100.00;98459.09;10354289;28;20237;-65
2023/10/10 02:41:27;;;;;;;12.50;6.85;;;10.20;99.90;;;10.87;100.00;98473.44;10354442;28;20230;-66
2023/10/10 02:46:35;;;;;;;11.45;6.28;;;10.20;99.90;;;11.00;100.00;98467.47;10348965;28;20680;-67
2023/10/10 02:51:41;;;;;;;12.50;6.57;;;10.20;99.90;;;10.98;99.61;98469.03;10361448;28;20665;-64
2023/10/10 02:56:46;;;;;;;12.88;6.93;;;10.20;99.90;;;10.95;100.00;98464.59;10362827;28;20246;-65
2023/10/10 03:01:57;;;;;;;12.13;7.10;;;10.20;99.90;;;10.96;99.65;98465.47;10361387;28;20237;-65
2023/10/10 03:07:05;;;;;;;11.95;6.75;;;10.20;99.90;;;10.98;97.59;98463.94;10360239;28;20219;-65
2023/10/10 03:12:17;;;;;;;13.48;6.40;;;10.10;99.90;;;10.88;98.74;98474.34;10362754;28;20322;-64
2023/10/10 03:17:42;;;;;;;15.25;6.70;;;10.00;99.90;;;10.76;97.99;98459.97;10359602;28;20741;-66
2023/10/10 03:28:20;;;;;;;13.00;6.75;;;9.90;99.90;;;10.62;100.00;98455.63;10362937;28;20242;-65
2023/10/10 03:33:36;;;;;;;9.80;6.35;;;9.90;99.90;;;10.62;100.00;98457.31;10361279;28;20249;-64
2023/10/10 03:39:16;;;;;;;14.00;6.15;;;9.90;99.90;;;10.59;99.30;98457.97;10358209;28;20955;-65
2023/10/10 05:26:05;;;;;;;11.97;7.80;;;9.30;99.90;;;10.04;100.00;98460.19;10359720;28;20218;-65
2023/10/10 05:31:09;;;;;;;16.50;7.40;;;9.40;99.90;;;10.11;100.00;98466.63;10365194;28;20285;-66
2023/10/10 05:36:18;;;;;;;10.10;6.75;;;9.50;99.90;;;10.10;100.00;98468.28;10362994;28;20230;-65
2023/10/10 05:41:22;;;;;;;14.70;7.45;;;9.50;99.90;;;10.18;100.00;98463.69;10360942;28;20333;-65
2023/10/10 05:46:25;;;;;;;14.63;6.72;;;9.50;99.90;;;10.25;100.00;98459.91;10364267;28;20653;-65
2023/10/10 05:51:30;;;;;;;12.73;7.65;;;9.60;99.90;;;10.21;100.00;98469.00;10365701;28;20722;-65
2023/10/10 05:56:34;;;;;;;11.95;7.57;;;9.60;99.90;;;10.23;100.00;98467.44;10360365;28;20230;-65
2023/10/10 06:01:38;;;;;;;13.05;7.40;;;9.70;99.90;;;10.35;100.00;98469.97;10365347;28;20230;-65
2023/10/10 06:06:43;;;;;;;12.30;7.45;;;9.70;99.90;;;10.57;100.00;98479.97;10368149;28;20733;-66
2023/10/10 06:11:46;;;;;;;14.23;7.25;;;9.90;99.90;;;10.82;100.00;98491.06;10366933;28;20642;-64
2023/10/10 06:16:50;;;;;;;12.57;7.65;;;10.20;99.90;;;11.10;100.00;98486.84;10366043;28;20248;-64
2023/10/10 06:21:59;;;;;;;13.02;7.35;;;10.40;99.90;;;11.35;100.00;98494.44;10367364;28;20249;-64
2023/10/10 06:27:02;;;;;;;14.02;6.95;;;10.70;99.90;;;11.72;100.00;98485.75;10361508;28;20229;-65
2023/10/10 06:32:10;;;;;;;10.90;6.78;;;11.00;99.90;;;12.05;97.80;98501.47;10366801;28;20231;-65
2023/10/10 06:37:15;;;;;;;12.73;7.22;;;11.20;99.90;;;12.24;96.44;98492.34;10363274;28;20250;-65
2023/10/10 06:42:27;;;;;;;10.82;6.90;;;11.40;99.90;;;12.56;93.38;98496.81;10366077;28;20699;-65
2023/10/10 06:47:32;;;;;;;10.90;7.45;;;11.60;99.90;;;12.73;92.92;98508.09;10366197;28;20313;-64
2023/10/10 06:52:36;;;;;;;12.60;6.75;;;11.90;99.90;;;13.16;91.92;98497.75;10359398;28;20252;-65
2023/10/10 06:57:41;;;;;;;14.93;8.18;;;12.20;99.90;;;13.50;88.64;98496.31;10360689;28;20636;-67
2023/10/10 07:02:50;;;;;;;11.40;7.63;;;12.50;99.90;;;13.66;86.91;98502.31;10357158;28;20318;-65
2023/10/10 07:07:58;;;;;;;10.50;7.32;;;12.70;99.90;;;13.91;85.59;98494.28;10363509;28;20600;-63
2023/10/10 07:13:03;;;;;;;14.07;7.32;;;12.90;99.90;;;14.02;85.75;98497.41;10360521;28;20234;-65
2023/10/10 07:18:09;;;;;;;13.93;7.78;;;13.10;99.90;;;14.10;86.05;98501.28;10365602;28;20238;-64
2023/10/10 07:23:14;;;;;;;14.30;7.35;;;13.10;99.90;;;14.32;84.20;98493.91;10364625;28;20313;-66
2023/10/10 07:28:17;;;;;;;14.45;8.40;;;13.40;99.90;;;14.34;84.45;98492.31;10368341;28;20272;-65
2023/10/10 07:33:23;;;;;;;16.45;8.25;;;13.50;99.90;;;14.81;83.21;98490.44;10367426;28;20231;-64
2023/10/10 07:38:28;;;;;;;14.20;8.30;;;14.00;99.90;;;15.28;81.51;98494.47;10370830;28;20250;-64
2023/10/10 07:43:34;;;;;;;14.77;7.85;;;14.40;99.90;;;15.57;80.10;98492.41;10372568;28;20249;-64
2023/10/10 07:48:44;;;;;;;16.25;7.53;;;14.80;99.90;;;16.14;78.04;98481.41;10370586;28;20237;-65
2023/10/10 07:53:58;;;;;;;13.30;8.18;;;15.40;99.90;;;16.46;75.48;98492.25;10369056;28;20245;-64
2023/10/10 07:59:05;;;;;;;14.43;7.72;;;15.70;99.90;;;16.37;76.34;98487.59;10368592;28;20234;-63
2023/10/10 08:04:12;;;;;;;13.38;7.22;;;15.60;99.90;;;16.76;76.03;98486.66;10369971;28;20234;-63
2023/10/10 08:09:23;;;;;;;14.27;7.47;;;16.00;99.90;;;16.99;74.96;98491.13;10367824;28;20285;-64
2023/10/10 08:14:31;;;;;;;13.55;7.65;;;16.20;99.90;;;17.04;75.42;98494.78;10373419;28;20653;-65
2023/10/10 08:19:34;;;;;;;12.43;7.57;;;16.20;99.90;;;17.55;74.12;98495.16;10367908;28;20669;-66
2023/10/10 08:24:43;;;;;;;15.93;7.65;;;16.80;99.90;;;17.89;72.99;98499.09;10364574;28;20222;-65
2023/10/10 08:29:47;;;;;;;15.18;7.65;;;17.20;99.90;;;18.26;72.58;98508.25;10366403;28;20229;-64
2023/10/10 08:34:50;;;;;;;13.18;7.68;;;17.60;99.90;;;18.53;69.99;98515.25;10365658;28;20249;-64
2023/10/10 08:39:55;;;;;;;11.38;8.10;;;17.80;99.90;;;18.40;71.18;98511.34;10363954;28;20233;-64
2023/10/10 08:45:01;;;;;;;12.52;8.20;;;17.60;99.90;;;18.46;70.94;98502.09;10365326;28;20237;-65
2023/10/10 08:50:06;;;;;;;15.10;8.00;;;17.70;99.90;;;18.52;71.88;98497.97;10360016;28;20231;-64
2023/10/10 08:55:13;;;;;;;13.00;7.63;;;17.80;99.90;;;18.79;72.05;98501.56;10365852;28;20321;-65
2023/10/10 09:00:17;;;;;;;13.75;7.10;;;18.20;99.90;;;19.32;69.17;98494.72;10366095;28;20222;-64
2023/10/10 09:05:23;;;;;;;13.98;7.20;;;18.80;99.90;;;19.83;67.44;98493.78;10368800;28;20733;-65
2023/10/10 09:10:28;;;;;;;14.18;6.68;;;19.40;99.90;;;20.11;65.32;98485.06;10364057;28;20300;-64
2023/10/10 09:15:33;;;;;;;12.25;6.65;;;19.60;99.90;;;20.39;64.14;98481.56;10364334;28;20310;-64
2023/10/10 09:20:37;;;;;;;11.05;6.82;;;19.90;99.90;;;20.66;62.57;98480.59;10362895;28;20273;-64
2023/10/10 09:25:43;;;;;;;13.52;6.55;;;20.10;99.90;;;20.83;60.39;98478.44;10362666;28;20257;-64
2023/10/10 09:30:58;;;;;;;11.70;6.40;;;20.30;99.90;;;20.89;58.50;98482.09;10363859;28;20229;-64
2023/10/10 09:36:09;;;;;;;12.68;5.88;;;20.30;99.90;;;21.21;60.09;98479.44;10364166;28;20806;-65
2023/10/10 09:41:27;;;;;;;12.65;6.70;;;20.60;99.90;;;21.48;58.98;98471.47;10359679;28;20245;-64
2023/10/10 09:46:58;;;;;;;11.50;6.20;;;20.90;99.90;;;21.72;58.07;98480.66;10362365;28;20598;-65
2023/10/10 09:57:26;;;;;;;12.48;6.00;;;21.30;99.90;;;22.23;56.08;98487.91;10359350;28;20230;-66
2023/10/10 10:02:40;;;;;;;11.57;6.25;;;21.60;99.90;;;22.26;55.40;98480.16;10365056;28;20768;-65
2023/10/10 10:07:57;;;;;;;12.73;6.00;;;21.60;99.90;;;22.48;54.36;98479.72;10351718;28;20222;-66
2023/10/10 10:13:37;;;;;;;11.05;5.55;;;21.80;99.30;;;22.60;52.88;98473.00;10360038;28;20791;-65
2023/10/10 10:18:47;;;;;;;11.93;5.78;;;22.00;98.40;;;22.63;52.65;98480.88;10361590;28;20660;-65
2023/10/10 10:23:57;;;;;;;12.35;6.07;;;21.90;98.20;;;22.79;51.62;98472.50;10363224;28;20231;-65
2023/10/10 10:29:15;;;;;;;12.52;5.95;;;22.00;97.40;;;22.81;51.51;98480.38;10357596;28;20224;-65
2023/10/10 10:34:31;;;;;;;14.70;6.07;;;22.00;97.30;;;23.01;51.50;98478.16;10353084;28;20233;-65
2023/10/10 10:39:36;;;;;;;9.73;5.18;;;22.20;97.30;;;23.11;50.48;98472.25;10356897;28;20226;-65
2023/10/10 10:44:53;;;;;;;12.00;5.47;;;22.30;96.70;;;23.21;50.63;98471.56;10362653;28;20312;-65
2023/10/10 10:49:57;;;;;;;11.23;6.22;;;22.50;96.20;;;23.35;49.00;98474.38;10363810;28;20248;-65
2023/10/10 10:55:21;;;;;;;13.55;5.60;;;22.60;95.30;;;23.26;47.63;98469.00;10364735;28;20977;-65
2023/10/10 11:00:57;;;;;;;12.57;5.72;;;22.60;94.10;;;23.49;47.05;98474.59;10361721;28;20305;-65
2023/10/10 11:06:06;;;;;;;11.32;6.25;;;22.80;93.50;;;23.60;46.08;98466.06;10362588;28;20604;-65
2023/10/10 11:11:23;;;;;;;11.13;5.82;;;22.90;92.60;;;23.55;42.31;98461.63;10366767;28;20230;-65
2023/10/10 11:16:36;;;;;;;13.35;6.25;;;22.70;89.70;;;23.49;41.96;98454.59;10371581;28;20724;-65
2023/10/10 11:21:47;;;;;;;12.80;6.03;;;22.70;87.40;;;23.51;41.23;98454.63;10368881;28;20222;-65
2023/10/10 11:27:02;;;;;;;12.38;6.10;;;22.80;86.90;;;23.50;42.82;98442.44;10370836;28;20650;-65
2023/10/10 11:32:08;;;;;;;11.00;6.45;;;22.70;89.30;;;23.57;42.00;98434.69;10367788;28;20226;-65
2023/10/10 11:37:13;;;;;;;11.23;6.05;;;22.80;88.30;;;23.58;43.73;98427.78;10369438;28;20318;-65
2023/10/10 11:42:33;;;;;;;11.52;6.22;;;22.80;90.40;;;23.70;42.82;98414.00;10369256;28;20320;-65
2023/10/10 11:47:43;;;;;;;12.63;6.43;;;22.90;89.80;;;23.89;40.39;98409.94;10369427;28;20751;-65
2023/10/10 11:52:53;;;;;;;11.38;6.30;;;23.10;85.30;;;23.95;40.76;98399.56;10368139;28;20245;-65
2023/10/10 11:57:58;;;;;;;11.50;7.03;;;23.10;86.90;;;23.73;41.35;98394.06;10367401;28;20222;-65
2023/10/10 12:03:05;;;;;;;13.75;6.30;;;23.00;86.20;;;23.82;40.80;98388.97;10368636;28;20233;-66
2023/10/10 12:08:08;;;;;;;13.13;6.28;;;22.90;86.50;;;23.76;40.82;98386.28;10366886;28;20223;-66
2023/10/10 12:13:19;;;;;;;14.35;7.18;;;22.90;85.40;;;23.56;40.91;98380.75;10369180;28;20234;-67
2023/10/10 12:18:26;;;;;;;11.32;6.85;;;22.80;85.10;;;23.57;40.83;98372.06;10364074;28;20326;-67
2023/10/10 12:23:30;;;;;;;10.68;6.57;;;22.80;85.10;;;23.65;39.71;98369.56;10365892;28;20229;-67
2023/10/10 12:28:33;;;;;;;14.18;7.43;;;22.80;83.00;;;23.67;39.61;98367.00;10367561;28;20632;-67
2023/10/10 12:33:37;;;;;;;11.57;7.20;;;22.90;82.80;;;23.66;39.82;98352.16;10366877;28;20237;-67
2023/10/10 12:38:40;;;;;;;9.98;6.70;;;22.90;83.40;;;23.72;40.36;98355.78;10365568;28;20238;-67
2023/10/10 12:43:44;;;;;;;13.00;7.25;;;23.00;84.20;;;23.89;39.48;98347.25;10371092;28;20726;-66
2023/10/10 12:48:51;;;;;;;14.75;7.18;;;23.10;82.70;;;23.91;40.09;98349.03;10364941;28;20233;-66
2023/10/10 12:54:00;;;;;;;12.52;7.25;;;23.20;84.00;;;24.07;41.08;98347.50;10366019;28;20228;-65
2023/10/10 12:59:18;;;;;;;13.32;6.72;;;23.30;85.70;;;24.08;41.33;98336.16;10365288;28;20275;-66
2023/10/10 13:04:32;;;;;;;11.52;7.07;;;23.30;86.50;;;24.07;40.94;98336.16;10370461;28;20225;-66
2023/10/10 13:09:42;;;;;;;11.02;6.95;;;23.20;85.20;;;24.06;41.50;98335.25;10360354;28;20269;-66
2023/10/10 13:14:50;;;;;;;12.23;6.72;;;23.30;85.60;;;24.19;40.82;98331.06;10363359;28;20222;-66
2023/10/10 13:19:58;;;;;;;10.80;7.10;;;23.40;85.20;;;24.16;40.95;98331.91;10363036;28;20222;-66
2023/10/10 13:25:08;;;;;;;10.65;6.50;;;23.30;85.80;;;24.26;40.42;98327.66;10362790;28;20229;-65
2023/10/10 13:30:13;;;;;;;11.13;7.07;;;23.40;85.00;;;24.31;41.21;98322.47;10363890;28;20233;-66
2023/10/10 13:35:19;;;;;;;12.65;7.13;;;23.40;85.30;;;24.20;40.05;98331.06;10362102;28;20236;-66
2023/10/10 13:40:23;;;;;;;14.63;7.57;;;23.30;83.00;;;24.19;39.27;98323.22;10366511;28;21376;-67
2023/10/10 13:45:28;;;;;;;11.23;6.53;;;23.40;81.30;;;24.25;38.84;98320.69;10360016;28;20226;-66
2023/10/10 13:50:42;;;;;;;11.98;6.68;;;23.40;82.00;;;24.24;38.91;98325.03;10362137;28;20660;-67
2023/10/10 13:55:46;;;;;;;10.73;7.15;;;23.40;82.00;;;24.36;38.36;98320.78;10370813;28;20232;-65
2023/10/10 14:01:10;;;;;;;12.25;7.15;;;23.50;81.10;;;24.26;38.20;98322.41;10388116;22;20225;-67
2023/10/10 14:06:19;;;;;;;13.32;7.65;;;23.40;80.50;;;24.21;38.00;98317.16;10445757;28;20278;-64
2023/10/10 14:11:22;;;;;;;12.52;7.30;;;23.30;80.30;;;24.16;38.38;98304.91;10439566;28;20769;-65
2023/10/10 14:16:25;;;;;;;12.80;7.90;;;23.30;80.00;;;24.08;38.08;98310.06;10443205;28;20598;-64
2023/10/10 14:21:31;;;;;;;11.82;7.53;;;23.20;79.40;;;24.01;38.52;98305.63;10445602;28;20320;-64
2023/10/10 14:26:35;;;;;;;12.70;9.10;;;23.10;80.40;;;23.98;36.68;98306.47;10440757;28;20220;-64
2023/10/10 14:31:43;;;;;;;14.63;9.30;;;23.10;75.90;;;23.93;34.75;98304.66;10446902;28;20344;-65
2023/10/10 14:36:50;;;;;;;14.23;9.02;;;23.00;73.90;;;23.87;36.27;98313.31;10435682;28;21046;-67
2023/10/10 14:41:54;;;;;;;17.92;10.90;;;22.90;75.50;;;23.75;37.08;98302.69;10443967;28;20247;-64
2023/10/10 14:46:57;;;;;;;13.05;9.55;;;22.80;77.70;;;23.65;36.92;98301.69;10450842;28;20709;-66
2023/10/10 14:52:04;;;;;;;12.57;9.05;;;22.70;77.90;;;23.52;38.71;98299.78;10452118;28;20234;-65
2023/10/10 14:57:10;;;;;;;13.93;9.13;;;22.50;81.60;;;23.29;41.01;98304.69;10463503;28;20240;-64
2023/10/10 15:02:15;;;;;;;14.02;9.13;;;22.30;85.70;;;23.12;43.49;98296.63;10447720;28;20240;-66
2023/10/10 15:07:20;;;;;;;14.20;8.70;;;22.10;89.60;;;22.81;45.99;98293.56;10449101;28;20223;-64
2023/10/10 15:12:25;;;;;;;13.40;8.43;;;21.80;91.50;;;22.57;48.19;98293.16;10438925;28;20253;-64
2023/10/10 15:17:28;;;;;;;14.93;9.20;;;21.50;93.00;;;22.34;49.06;98296.25;10444260;28;20613;-64
2023/10/10 15:22:32;;;;;;;13.95;9.02;;;21.30;93.60;;;22.11;50.08;98300.13;10440752;28;20680;-64
2023/10/10 15:27:35;;;;;;;12.98;8.40;;;21.10;94.60;;;21.86;51.67;98297.06;10448707;28;20753;-64
2023/10/10 15:32:46;;;;;;;15.82;9.25;;;20.80;95.70;;;21.66;53.76;98303.59;10441046;28;20605;-65
2023/10/10 15:37:52;;;;;;;15.18;9.43;;;20.60;97.20;;;21.40;54.13;98305.66;10441027;28;20679;-63
2023/10/10 15:42:58;;;;;;;15.45;10.10;;;20.30;97.40;;;21.11;55.11;98304.13;10438210;28;20362;-64
2023/10/10 15:48:01;;;;;;;16.60;10.50;;;20.00;98.10;;;20.93;55.57;98303.72;10433935;28;20378;-64
2023/10/10 15:53:05;;;;;;;15.80;10.35;;;19.90;98.70;;;20.65;57.46;98303.06;10440683;28;20730;-64
2023/10/10 15:58:09;;;;;;;16.00;10.07;;;19.60;99.90;;;20.41;58.29;98305.91;10437544;28;20236;-64
2023/10/10 16:03:12;;;;;;;16.00;9.60;;;19.40;99.90;;;20.17;59.58;98311.34;10446572;28;20228;-65
2023/10/10 16:08:17;;;;;;;13.70;9.52;;;19.10;99.90;;;19.95;61.81;98317.69;10450391;28;20718;-64
2023/10/10 16:13:22;;;;;;;14.50;8.95;;;19.00;99.90;;;19.74;62.69;98315.38;10447424;28;20237;-64
2023/10/10 16:18:25;;;;;;;18.95;11.00;;;18.70;99.90;;;19.54;64.48;98308.69;10446328;28;20233;-64
2023/10/10 16:23:31;;;;;;;17.02;10.60;;;18.50;99.90;;;19.32;65.86;98312.38;10445650;28;20233;-64
2023/10/10 16:28:37;;;;;;;16.05;10.60;;;18.30;99.90;;;19.16;66.00;98320.53;10437392;28;20220;-64
2023/10/10 16:33:40;;;;;;;15.48;10.18;;;18.20;99.90;;;18.94;67.80;98318.97;10437202;28;20221;-64
2023/10/10 16:38:49;;;;;;;15.35;10.27;;;17.90;99.90;;;18.68;68.68;98327.66;10438132;28;20220;-65
2023/10/10 16:43:53;;;;;;;15.18;10.10;;;17.70;99.90;;;18.45;69.42;98328.56;10443140;28;20236;-66
2023/10/10 16:49:05;;;;;;;15.25;10.68;;;17.40;99.90;;;18.23;70.78;98330.44;10443408;28;20543;-64
2023/10/10 16:54:12;;;;;;;13.90;9.63;;;17.20;99.90;;;18.02;72.14;98338.31;10442204;28;20225;-64
2023/10/10 16:59:15;;;;;;;13.90;9.93;;;17.00;99.90;;;17.75;73.38;98337.31;10437475;28;20312;-64
2023/10/10 17:04:19;;;;;;;14.80;9.82;;;16.70;99.90;;;17.58;73.89;98343.59;10434142;28;20237;-64
2023/10/10 17:09:28;;;;;;;15.52;9.75;;;16.50;99.90;;;17.40;73.82;98344.66;10429716;28;20763;-64
2023/10/10 17:14:34;;;;;;;13.63;9.18;;;16.40;99.90;;;17.26;72.53;98346.72;10443695;28;20217;-63
2023/10/10 17:19:40;;;;;;;12.77;8.85;;;16.30;99.90;;;17.04;72.67;98347.56;10437565;28;20228;-64
2023/10/10 17:24:47;;;;;;;13.82;9.02;;;16.10;99.90;;;16.90;72.73;98351.28;10434091;28;20468;-65
2023/10/10 17:29:50;;;;;;;14.90;9.55;;;15.90;99.90;;;16.77;72.63;98349.03;10435734;28;20239;-65
2023/10/10 17:34:53;;;;;;;15.45;9.82;;;15.70;99.90;;;16.47;74.10;98357.25;10432298;28;21046;-64
2023/10/10 17:39:58;;;;;;;13.77;9.73;;;15.50;99.90;;;16.33;75.21;98353.22;10435501;28;20616;-66
2023/10/10 17:45:03;;;;;;;16.23;9.63;;;15.30;99.90;;;16.26;75.52;98358.94;10435006;28;22715;-64
2023/10/10 17:50:08;;;;;;;14.32;8.95;;;15.30;99.90;;;16.08;75.29;98365.06;10441004;28;20282;-64
2023/10/10 17:55:13;;;;;;;14.25;9.32;;;15.10;99.90;;;15.94;75.81;98368.75;10435437;28;20247;-65
2023/10/10 18:00:17;;;;;;;12.43;8.68;;;15.00;99.90;;;15.87;75.49;98364.13;10437281;28;20221;-64
2023/10/10 18:05:20;;;;;;;18.77;9.60;;;14.90;99.90;;;15.62;76.31;98359.53;10453591;28;20237;-65
2023/10/10 18:10:26;;;;;;;16.60;9.70;;;14.60;99.90;;;15.51;76.69;98364.22;10453927;28;20229;-65
2023/10/10 18:15:30;;;;;;;13.88;9.60;;;14.50;99.90;;;15.24;77.87;98374.97;10437751;28;20235;-65
2023/10/10 18:20:34;;;;;;;17.40;10.00;;;14.30;99.90;;;15.18;78.11;98368.66;10435844;28;20712;-64
2023/10/10 18:25:39;;;;;;;16.70;10.15;;;14.30;99.90;;;15.06;78.87;98371.53;10432792;28;20303;-65
2023/10/10 18:30:42;;;;;;;15.98;9.93;;;14.10;99.90;;;14.87;79.96;98368.06;10430905;28;20225;-64
2023/10/10 18:35:46;;;;;;;14.75;9.73;;;14.00;99.90;;;14.82;79.86;98364.41;10435484;28;20225;-65
2023/10/10 18:40:50;;;;;;;13.15;8.93;;;13.90;99.90;;;14.84;79.40;98365.34;10436811;28;20587;-64
2023/10/10 18:45:59;;;;;;;18.63;10.07;;;13.90;99.90;;;14.74;80.62;98368.31;10433465;28;20233;-65
2023/10/10 18:51:02;;;;;;;13.02;9.57;;;13.80;99.90;;;14.62;81.41;98373.72;10431958;28;20240;-66
2023/10/10 18:56:08;;;;;;;13.95;9.38;;;13.70;99.90;;;14.69;81.09;98382.63;10434193;28;20903;-66
2023/10/10 19:01:12;;;;;;;13.65;8.80;;;13.70;99.90;;;14.57;81.39;98382.03;10441243;28;20770;-65
2023/10/10 19:06:17;;;;;;;15.32;10.70;;;13.60;99.90;;;14.44;81.75;98385.63;10434975;28;20221;-66
2023/10/10 19:11:24;;;;;;;30.02;20.08;;;13.50;99.90;;;14.19;83.68;98379.25;10436023;28;20231;-65
2023/10/10 19:16:28;;;;;;;47.47;36.47;;;13.30;99.90;;;14.20;83.09;98381.00;10432317;28;20220;-65
2023/10/10 19:21:31;;;;;;;48.70;37.35;;;13.30;99.90;;;14.16;82.92;98383.34;10437162;28;20734;-65
2023/10/10 19:26:36;;;;;;;27.50;19.90;;;13.20;99.90;;;14.03;84.42;98386.97;10440355;28;20717;-65
2023/10/10 19:31:39;;;;;;;21.35;15.50;;;13.10;99.90;;;13.93;84.47;98393.31;10441722;28;20226;-66
2023/10/10 19:36:44;;;;;;;17.90;12.48;;;13.00;99.90;;;13.86;84.96;98387.78;10445669;28;20324;-64
2023/10/10 19:41:52;;;;;;;15.95;10.27;;;12.90;99.90;;;13.79;85.53;98386.56;10448575;28;20332;-65
2023/10/10 19:46:56;;;;;;;15.88;9.80;;;12.90;99.90;;;13.67;85.34;98388.47;10443018;28;20229;-66
2023/10/10 19:51:59;;;;;;;14.65;9.68;;;12.80;99.90;;;13.63;86.12;98389.13;10439585;28;20298;-66
2023/10/10 19:57:04;;;;;;;13.90;9.27;;;12.70;99.90;;;13.54;86.36;98398.91;10440342;28;20228;-66
2023/10/10 20:02:07;;;;;;;16.17;9.48;;;12.60;99.90;;;13.42;87.01;98393.97;10439777;28;20225;-68
2023/10/10 20:07:11;;;;;;;15.20;9.25;;;12.50;99.90;;;13.44;86.36;98393.25;10440366;28;20229;-66
2023/10/10 20:12:15;;;;;;;14.55;9.48;;;12.50;99.90;;;13.38;86.43;98390.38;10440988;28;20241;-66
2023/10/10 20:17:18;;;;;;;15.23;9.82;;;12.50;99.90;;;13.27;87.09;98387.19;10441550;28;20224;-65
2023/10/10 20:22:21;;;;;;;15.25;10.05;;;12.40;99.90;;;13.18;87.46;98389.22;10439988;28;20764;-64
2023/10/10 20:27:30;;;;;;;14.45;9.55;;;12.30;99.90;;;13.12;87.67;98381.19;10441327;28;20715;-64
2023/10/10 20:32:34;;;;;;;14.45;10.13;;;12.20;99.90;;;13.05;87.85;98392.81;10436904;28;20217;-64
2023/10/10 20:37:38;;;;;;;16.30;11.10;;;12.20;99.90;;;12.93;88.48;98392.09;10440715;28;20278;-66
2023/10/10 20:42:42;;;;;;;16.50;10.75;;;12.10;99.90;;;12.84;88.63;98382.22;10439631;28;20229;-65
2023/10/10 20:47:47;;;;;;;17.45;10.43;;;12.00;99.90;;;12.86;88.49;98387.44;10436475;28;20228;-65
2023/10/10 20:52:51;;;;;;;14.07;9.68;;;12.00;99.90;;;12.80;88.44;98389.66;10443401;28;20335;-65
2023/10/10 20:57:57;;;;;;;14.63;10.10;;;11.90;99.90;;;12.75;89.02;98385.94;10444507;28;20236;-65
2023/10/10 21:03:05;;;;;;;15.77;10.07;;;11.90;99.90;;;12.61;89.69;98388.59;10439315;28;20580;-64
2023/10/10 21:08:09;;;;;;;14.60;9.85;;;11.80;99.90;;;12.62;89.89;98394.63;10445953;28;20719;-65
2023/10/10 21:13:15;;;;;;;14.23;9.90;;;11.70;99.90;;;12.62;88.90;98382.69;10437841;28;20254;-65
2023/10/10 21:18:19;;;;;;;14.82;10.48;;;11.70;99.90;;;12.44;90.18;98384.19;10440652;28;20229;-65
2023/10/10 21:23:25;;;;;;;13.95;9.82;;;11.60;99.90;;;12.46;90.00;98382.59;10441475;28;20241;-67
2023/10/10 21:28:29;;;;;;;14.07;9.68;;;11.50;99.90;;;12.41;91.58;98378.88;10444874;28;20312;-66
2023/10/10 21:33:32;;;;;;;16.58;10.40;;;11.60;99.90;;;12.45;91.43;98374.81;10445641;28;20640;-66
2023/10/10 21:38:36;;;;;;;13.18;9.10;;;11.60;99.90;;;12.46;90.80;98368.91;10445036;28;20232;-65
2023/10/10 21:43:40;;;;;;;16.08;9.50;;;11.60;99.90;;;12.40;91.57;98372.00;10445546;28;20253;-65
2023/10/10 21:48:43;;;;;;;14.20;9.82;;;11.60;99.90;;;12.38;91.24;98368.44;10445249;28;20613;-64
2023/10/10 21:53:46;;;;;;;17.15;10.23;;;11.50;99.90;;;12.30;91.72;98361.97;10440746;28;20233;-64
2023/10/10 21:58:51;;;;;;;14.98;10.25;;;11.50;99.90;;;12.23;92.37;98367.56;10443333;28;20631;-65
2023/10/10 22:03:54;;;;;;;15.73;10.15;;;11.40;99.90;;;12.15;93.00;98356.84;10442337;28;20229;-66
2023/10/10 22:09:00;;;;;;;14.98;9.48;;;11.30;99.90;;;12.17;93.13;98358.72;10436192;28;20231;-66
2023/10/10 22:14:05;;;;;;;16.60;10.35;;;11.40;99.90;;;12.22;92.90;98359.00;10440435;28;20237;-67
2023/10/10 22:19:08;;;;;;;14.75;9.98;;;11.50;99.90;;;12.17;93.00;98347.59;10436626;28;20742;-66
2023/10/10 22:24:14;;;;;;;14.98;9.55;;;11.30;99.90;;;12.19;93.22;98353.69;10435976;28;20225;-67
2023/10/10 22:29:18;;;;;;;13.30;9.90;;;11.40;99.90;;;12.17;92.68;98345.91;10437915;28;20236;-67
2023/10/10 22:34:22;;;;;;;15.45;10.07;;;11.30;99.90;;;12.03;92.53;98351.00;10435804;28;20232;-66
2023/10/10 22:39:26;;;;;;;14.82;9.70;;;11.20;99.90;;;12.01;92.30;98356.03;10434531;28;20227;-66
2023/10/10 22:44:30;;;;;;;13.65;9.15;;;11.10;99.90;;;11.93;93.00;98350.47;10435698;28;20271;-65
2023/10/10 22:49:35;;;;;;;17.60;9.70;;;11.10;99.90;;;11.90;92.77;98352.84;10436552;28;20225;-64
2023/10/10 22:54:38;;;;;;;13.75;8.70;;;11.00;99.90;;;11.86;92.54;98350.88;10435159;28;20304;-64